createdAt,value
2023-05-11T00:02:56.947Z,10.46
2023-05-11T00:12:59.959Z,10.46
2023-05-11T00:23:02.811Z,10.42
2023-05-11T00:33:05.423Z,10.38
2023-05-11T00:43:07.770Z,10.32
2023-05-11T00:53:10.191Z,10.27
2023-05-11T01:03:15.321Z,10.23
2023-05-11T01:13:26.919Z,10.24
2023-05-11T01:23:48.414Z,10.21
2023-05-11T01:33:59.233Z,10.21
2023-05-11T01:44:04.932Z,10.27
2023-05-11T01:54:08.460Z,10.28
2023-05-11T02:04:12.438Z,10.26
2023-05-11T02:14:16.227Z,10.28
2023-05-11T02:24:20.029Z,10.24
2023-05-11T02:34:24.449Z,10.23
2023-05-11T02:44:32.127Z,10.20
2023-05-11T02:54:35.235Z,10.14
2023-05-11T03:04:37.774Z,10.13
2023-05-11T03:14:40.678Z,10.15
2023-05-11T03:24:43.617Z,10.15
2023-05-11T03:34:46.042Z,10.12
2023-05-11T03:44:49.670Z,10.08
2023-05-11T03:54:52.052Z,10.07
2023-05-11T04:04:54.603Z,10.05
2023-05-11T04:14:57.851Z,10.06
2023-05-11T04:25:00.377Z,10.05
2023-05-11T04:35:02.861Z,10.11
2023-05-11T04:45:06.880Z,10.20
2023-05-11T04:55:09.800Z,10.28
2023-05-11T05:05:12.231Z,10.42
2023-05-11T05:15:16.186Z,10.56
2023-05-11T05:25:18.554Z,10.73
2023-05-11T05:35:21.377Z,10.84
2023-05-11T05:45:23.883Z,11.03
2023-05-11T05:55:26.540Z,11.35
2023-05-11T06:05:29.315Z,11.68
2023-05-11T06:15:31.703Z,12.05
2023-05-11T06:25:35.456Z,12.47
2023-05-11T06:35:38.284Z,13.02
2023-05-11T06:45:42.316Z,13.42
2023-05-11T06:55:44.803Z,13.78
2023-05-11T07:05:47.285Z,14.10
2023-05-11T07:15:50.555Z,14.19
2023-05-11T07:25:56.477Z,14.04
2023-05-11T07:35:59.010Z,14.47
2023-05-11T07:46:01.976Z,14.84
2023-05-11T07:56:05.095Z,15.35
2023-05-11T08:06:08.340Z,15.08
2023-05-11T08:16:11.367Z,15.07
2023-05-11T08:26:14.684Z,15.53
2023-05-11T08:36:17.704Z,16.01
2023-05-11T08:46:27.443Z,16.92
2023-05-11T08:56:30.170Z,16.86
2023-05-11T09:06:32.906Z,17.13
2023-05-11T09:16:37.634Z,17.17
2023-05-11T09:26:41.165Z,16.91
2023-05-11T09:36:45.778Z,16.78
2023-05-11T09:46:49.459Z,16.94
2023-05-11T09:56:59.759Z,17.12
2023-05-11T10:07:05.413Z,16.30
2023-05-11T10:17:08.177Z,15.13
2023-05-11T10:27:12.028Z,14.32
2023-05-11T10:37:16.311Z,14.83
2023-05-11T10:47:19.430Z,15.81
2023-05-11T10:57:45.639Z,15.89
2023-05-11T11:07:59.736Z,15.23
2023-05-11T11:18:22.604Z,14.69
2023-05-11T11:28:25.874Z,14.37
2023-05-11T11:38:29.561Z,14.42
2023-05-11T11:48:34.877Z,14.85
2023-05-11T11:59:02.899Z,15.58
2023-05-11T12:09:06.674Z,16.19
2023-05-11T12:19:09.317Z,16.72
2023-05-11T12:29:13.569Z,16.94
2023-05-11T12:39:19.506Z,17.65
2023-05-11T12:49:26.713Z,17.87
2023-05-11T12:59:40.556Z,17.90
2023-05-11T13:09:43.532Z,17.87
2023-05-11T13:19:46.410Z,19.03
2023-05-11T13:29:49.220Z,18.79
2023-05-11T13:39:51.976Z,16.93
2023-05-11T13:49:56.340Z,15.41
2023-05-11T13:59:59.679Z,14.81
2023-05-11T14:10:02.787Z,14.78
2023-05-11T14:20:06.596Z,14.71
2023-05-11T14:30:10.408Z,15.01
2023-05-11T14:40:13.931Z,15.32
2023-05-11T14:50:17.910Z,15.90
2023-05-11T15:00:21.170Z,16.02
2023-05-11T15:10:24.153Z,16.12
2023-05-11T15:20:26.794Z,16.30
2023-05-11T15:30:31.978Z,16.70
2023-05-11T15:40:35.393Z,17.01
2023-05-11T15:50:46.512Z,16.79
2023-05-11T16:00:49.625Z,16.43
2023-05-11T16:10:52.528Z,16.49
2023-05-11T16:20:55.351Z,16.96
2023-05-11T16:30:59.474Z,17.32
2023-05-11T16:41:02.682Z,18.07
2023-05-11T16:51:05.769Z,18.80
2023-05-11T17:01:09.149Z,18.20
2023-05-11T17:11:12.106Z,17.77
2023-05-11T17:21:15.582Z,17.55
2023-05-11T17:41:52.237Z,15.91
2023-05-11T17:51:55.267Z,15.16
2023-05-11T18:01:59.203Z,14.77
2023-05-11T18:12:03.275Z,14.42
2023-05-11T18:22:06.006Z,13.94
2023-05-11T18:32:09.210Z,13.48
2023-05-11T18:42:12.166Z,13.14
2023-05-11T18:52:15.728Z,12.92
2023-05-11T19:02:18.889Z,12.62
2023-05-11T19:12:21.613Z,12.43
2023-05-11T19:22:27.565Z,12.20
2023-05-11T19:32:30.214Z,12.06
2023-05-11T19:42:39.166Z,11.94
2023-05-11T19:52:43.285Z,11.82
2023-05-11T20:02:46.997Z,11.73
2023-05-11T20:12:49.591Z,11.73
2023-05-11T20:22:52.695Z,11.68
2023-05-11T20:43:01.331Z,11.57
2023-05-11T20:53:04.487Z,11.43
2023-05-11T21:03:07.741Z,11.34
2023-05-11T21:13:11.399Z,11.28
2023-05-11T21:23:15.020Z,11.21
2023-05-11T21:33:18.325Z,11.22
2023-05-11T21:43:21.555Z,11.21
2023-05-11T21:53:24.613Z,11.07
2023-05-11T22:03:30.783Z,11.04
2023-05-11T22:13:34.098Z,10.95
2023-05-11T22:23:37.317Z,10.80
2023-05-11T22:33:40.034Z,10.72
2023-05-11T22:43:43.740Z,10.50
2023-05-11T22:53:46.655Z,10.33
2023-05-11T23:03:49.502Z,10.15
2023-05-11T23:13:52.216Z,9.95
2023-05-11T23:23:54.743Z,9.81
2023-05-11T23:33:56.943Z,9.75
2023-05-11T23:43:59.637Z,9.73
2023-05-11T23:54:02.382Z,9.71
